Time;durP1;ratioP1;P1;durP2;ratioP2;P2;SDS_P1;SDS_P2;PMS_P1;PMS_P2;Temp;Humidity;BMP_temperature;BMP_pressure;BME280_temperature;BME280_humidity;BME280_pressure;Samples;Min_cycle;Max_cycle;Signal;HPM_P1;HPM_P2
2022/08/07 00:00:49;;;;;;;21.05;11.15;;;;;;;13.78;71.23;102448.56;4990755;28;20038;-73
2022/08/07 00:03:15;;;;;;;18.80;10.77;;;;;;;13.68;72.53;102456.69;4990398;28;20022;-73
2022/08/07 00:05:40;;;;;;;23.67;12.25;;;;;;;13.67;72.09;102451.41;4986183;28;20034;-73
2022/08/07 00:08:06;;;;;;;19.55;10.27;;;;;;;13.65;72.29;102465.16;4990874;28;20030;-74
2022/08/07 00:10:31;;;;;;;19.75;11.95;;;;;;;13.60;72.39;102445.66;4990794;28;20117;-73
2022/08/07 00:13:03;;;;;;;20.55;12.25;;;;;;;13.50;73.19;102444.78;4991929;28;20027;-73
2022/08/07 00:15:29;;;;;;;17.38;11.80;;;;;;;13.51;73.09;102449.22;4991712;28;20030;-74
2022/08/07 00:17:55;;;;;;;18.55;11.07;;;;;;;13.52;73.13;102449.09;4990290;28;20022;-73
2022/08/07 00:20:20;;;;;;;20.42;11.25;;;;;;;13.50;73.17;102440.22;4990438;28;20404;-73
2022/08/07 00:22:46;;;;;;;23.13;12.05;;;;;;;13.47;73.25;102439.63;4991414;28;20481;-73
2022/08/07 00:25:11;;;;;;;22.92;11.68;;;;;;;13.44;73.33;102434.47;4991507;28;20086;-73
2022/08/07 00:27:36;;;;;;;20.85;11.25;;;;;;;13.37;73.92;102427.84;4992006;28;20480;-73
2022/08/07 00:30:03;;;;;;;18.17;11.18;;;;;;;13.41;73.79;102430.13;4989788;28;20545;-72
2022/08/07 00:32:29;;;;;;;19.67;11.82;;;;;;;13.39;73.88;102425.84;4998650;28;20034;-72
2022/08/07 00:34:54;;;;;;;25.42;12.25;;;;;;;13.32;74.40;102435.56;4990495;28;20026;-72
2022/08/07 00:37:20;;;;;;;19.02;11.52;;;;;;;13.28;74.80;102434.97;4991612;28;20085;-72
2022/08/07 00:39:45;;;;;;;17.83;11.68;;;;;;;13.24;74.95;102433.53;4988476;28;20023;-72
2022/08/07 00:42:11;;;;;;;16.85;10.80;;;;;;;13.23;74.14;102421.75;4990682;28;20060;-71
2022/08/07 00:44:36;;;;;;;17.52;10.77;;;;;;;13.24;74.03;102428.97;4990100;28;20033;-72
2022/08/07 00:47:04;;;;;;;22.65;11.40;;;;;;;13.11;74.79;102433.75;4990464;28;20405;-72
2022/08/07 00:49:30;;;;;;;18.73;10.10;;;;;;;13.01;74.83;102432.81;4990675;28;20030;-72
2022/08/07 00:51:55;;;;;;;21.23;11.98;;;;;;;13.07;74.38;102432.28;4991572;28;20105;-72
2022/08/07 00:54:21;;;;;;;17.17;10.90;;;;;;;13.13;74.29;102426.28;4990909;28;20027;-72
2022/08/07 00:56:47;;;;;;;21.23;12.10;;;;;;;13.10;74.62;102426.56;4990212;28;20104;-72
2022/08/07 00:59:12;;;;;;;20.77;12.15;;;;;;;13.10;75.01;102423.81;4985950;28;20076;-73
2022/08/07 01:01:38;;;;;;;22.92;12.15;;;;;;;13.06;75.11;102425.13;4990120;28;20022;-72
2022/08/07 01:04:05;;;;;;;18.02;11.55;;;;;;;13.02;75.33;102423.66;4989632;28;20030;-73
2022/08/07 01:06:31;;;;;;;19.63;11.88;;;;;;;12.99;75.23;102426.66;4989976;28;20117;-73
2022/08/07 01:08:58;;;;;;;17.83;10.45;;;;;;;12.98;74.23;102428.53;4998308;28;20192;-72
2022/08/07 01:11:24;;;;;;;18.80;11.25;;;;;;;12.98;74.15;102427.66;4991194;28;20022;-72
2022/08/07 01:13:50;;;;;;;22.40;12.00;;;;;;;12.91;74.73;102421.03;4989512;28;20036;-73
2022/08/07 01:16:15;;;;;;;22.98;11.52;;;;;;;12.88;75.21;102426.75;4989402;28;20026;-73
2022/08/07 01:18:41;;;;;;;17.42;11.10;;;;;;;12.70;75.44;102424.63;4988562;28;20030;-73
2022/08/07 01:21:13;;;;;;;22.48;11.95;;;;;;;12.16;79.61;102436.56;4989543;28;20030;-73
2022/08/07 01:23:40;;;;;;;18.40;11.60;;;;;;;12.52;77.12;102437.13;4989904;28;20033;-72
2022/08/07 01:26:12;;;;;;;21.05;12.20;;;;;;;12.68;76.76;102432.06;4991016;28;20125;-72
2022/08/07 01:28:42;;;;;;;18.70;11.38;;;;;;;12.73;76.70;102423.53;4990864;28;20030;-72
2022/08/07 01:31:08;;;;;;;21.08;12.45;;;;;;;12.75;75.86;102422.38;4967377;28;20173;-73
2022/08/07 01:33:34;;;;;;;21.13;11.07;;;;;;;12.74;76.13;102422.53;4985520;28;20014;-72
2022/08/07 01:36:01;;;;;;;24.80;11.93;;;;;;;12.74;76.45;102426.09;4989047;28;20030;-73
2022/08/07 01:38:28;;;;;;;19.60;11.10;;;;;;;12.70;75.98;102418.34;4990030;28;20177;-73
2022/08/07 01:40:58;;;;;;;23.15;13.23;;;;;;;12.66;76.70;102412.34;4987875;28;20548;-73
2022/08/07 01:43:25;;;;;;;17.98;12.07;;;;;;;12.56;76.47;102419.53;4987082;28;20026;-73
2022/08/07 01:45:52;;;;;;;23.90;12.00;;;;;;;12.53;75.89;102422.53;4988827;28;20066;-72
2022/08/07 01:48:17;;;;;;;22.77;12.18;;;;;;;12.49;75.86;102421.06;4989449;28;20022;-72
2022/08/07 01:50:48;;;;;;;19.88;12.23;;;;;;;12.48;77.15;102419.38;4989742;28;20033;-73
2022/08/07 01:53:15;;;;;;;21.52;12.73;;;;;;;12.49;77.20;102421.06;4989884;28;20034;-72
2022/08/07 01:55:51;;;;;;;19.70;12.30;;;;;;;12.51;76.99;102413.66;4990023;28;20041;-72
2022/08/07 01:58:20;;;;;;;17.92;12.00;;;;;;;12.40;76.07;102422.75;4989681;28;20061;-72
2022/08/07 02:00:51;;;;;;;19.45;11.68;;;;;;;12.34;76.56;102422.41;4989699;28;20069;-72
2022/08/07 02:03:20;;;;;;;20.60;13.02;;;;;;;12.45;76.95;102414.19;4988262;28;20022;-73
2022/08/07 02:05:50;;;;;;;19.63;12.52;;;;;;;12.40;77.16;102419.16;4984073;28;20036;-72
2022/08/07 02:08:18;;;;;;;20.88;12.05;;;;;;;12.05;78.40;102412.16;4989876;28;20030;-72
2022/08/07 02:10:48;;;;;;;20.98;13.07;;;;;;;12.12;78.88;102415.22;4987710;28;20516;-73
2022/08/07 02:13:15;;;;;;;20.92;12.13;;;;;;;12.01;78.80;102416.16;4989240;28;20026;-72
2022/08/07 02:15:42;;;;;;;25.92;13.20;;;;;;;12.17;77.68;102416.56;4989437;28;20064;-73
2022/08/07 02:18:12;;;;;;;19.17;11.80;;;;;;;12.26;77.08;102414.03;4988100;28;20023;-72
2022/08/07 02:20:39;;;;;;;18.85;11.98;;;;;;;12.30;76.60;102410.06;4984887;28;20033;-73
2022/08/07 02:23:06;;;;;;;22.75;12.50;;;;;;;12.29;76.09;102408.34;4985311;28;20018;-73
2022/08/07 02:25:35;;;;;;;21.63;11.70;;;;;;;12.28;76.47;102406.66;4987997;28;20058;-73
2022/08/07 02:28:01;;;;;;;19.42;12.45;;;;;;;12.19;77.66;102403.72;4988608;28;20446;-72
2022/08/07 02:30:27;;;;;;;27.17;15.07;;;;;;;11.67;80.27;102407.22;4988405;28;20025;-72
2022/08/07 02:32:56;;;;;;;24.40;13.88;;;;;;;11.86;79.62;102406.56;4989664;28;20107;-72
2022/08/07 02:35:23;;;;;;;24.52;13.55;;;;;;;11.90;79.38;102398.03;4988116;28;20117;-71
2022/08/07 02:37:50;;;;;;;24.25;13.60;;;;;;;12.00;78.62;102398.16;4989223;28;20022;-72
2022/08/07 02:40:16;;;;;;;26.55;13.60;;;;;;;12.07;77.92;102399.34;4988443;28;20568;-75
2022/08/07 02:42:43;;;;;;;26.10;15.25;;;;;;;12.10;78.30;102399.06;4989140;28;20105;-72
2022/08/07 02:45:11;;;;;;;19.38;12.85;;;;;;;12.06;78.47;102392.19;4988225;28;20065;-72
2022/08/07 02:47:36;;;;;;;22.15;13.50;;;;;;;12.03;78.06;102397.88;4988155;28;20022;-72
2022/08/07 02:50:03;;;;;;;26.58;12.73;;;;;;;11.98;78.17;102400.09;5008427;23;20049;-69
2022/08/07 02:52:33;;;;;;;18.15;12.95;;;;;;;12.00;78.61;102397.25;5016706;28;20278;-70
2022/08/07 02:55:09;;;;;;;29.02;14.05;;;;;;;11.93;78.39;102396.91;5002017;28;20459;-70
2022/08/07 02:57:37;;;;;;;22.15;12.55;;;;;;;11.85;78.32;102394.84;5004009;28;20034;-70
2022/08/07 03:00:04;;;;;;;24.35;12.90;;;;;;;11.87;78.54;102400.19;5010153;28;20034;-70
2022/08/07 03:02:31;;;;;;;22.02;13.55;;;;;;;11.83;78.73;102395.97;4999102;28;20053;-71
2022/08/07 03:04:59;;;;;;;24.33;13.50;;;;;;;11.87;78.86;102387.47;5001500;28;20026;-70
2022/08/07 03:07:25;;;;;;;23.48;14.02;;;;;;;11.83;78.95;102401.41;5012833;28;20064;-71
2022/08/07 03:09:51;;;;;;;23.58;14.10;;;;;;;11.81;78.26;102392.56;4987596;28;20034;-68
2022/08/07 03:12:17;;;;;;;21.83;13.35;;;;;;;11.76;78.10;102394.75;4995826;28;20029;-70
2022/08/07 03:14:44;;;;;;;18.40;13.02;;;;;;;11.67;78.25;102391.81;5013288;28;20099;-71
2022/08/07 03:17:09;;;;;;;23.92;13.98;;;;;;;11.62;78.58;102391.34;4991883;28;20045;-71
2022/08/07 03:19:35;;;;;;;22.52;13.40;;;;;;;11.60;78.74;102396.00;4993040;28;20025;-71
2022/08/07 03:22:04;;;;;;;19.80;12.93;;;;;;;11.53;79.25;102389.38;4999729;28;20080;-71
2022/08/07 03:24:29;;;;;;;21.35;13.80;;;;;;;11.53;79.82;102383.94;5016361;28;20022;-71
2022/08/07 03:27:00;;;;;;;21.92;13.70;;;;;;;11.66;79.43;102390.06;5011297;28;20034;-71
2022/08/07 03:29:31;;;;;;;25.02;14.88;;;;;;;11.71;79.58;102380.69;5007357;28;20037;-71
2022/08/07 03:31:58;;;;;;;22.60;13.48;;;;;;;11.68;78.85;102377.25;4999810;28;20038;-71
2022/08/07 03:34:26;;;;;;;21.70;12.75;;;;;;;11.68;78.34;102388.09;4998965;28;20087;-71
2022/08/07 03:36:53;;;;;;;22.98;13.48;;;;;;;11.72;78.13;102367.00;5011130;28;20030;-71
2022/08/07 03:39:21;;;;;;;24.85;14.15;;;;;;;11.74;78.05;102380.47;5001229;28;20396;-71
2022/08/07 03:41:46;;;;;;;25.65;15.27;;;;;;;11.68;78.25;102382.69;5001620;28;20125;-71
2022/08/07 03:44:12;;;;;;;22.65;13.43;;;;;;;11.66;78.58;102384.66;5009603;28;20112;-71
2022/08/07 03:46:40;;;;;;;22.35;13.80;;;;;;;11.67;78.66;102391.81;4996127;28;20025;-71
2022/08/07 03:49:08;;;;;;;20.88;13.35;;;;;;;11.68;78.65;102388.09;4998977;28;20160;-70
2022/08/07 03:51:34;;;;;;;23.08;14.07;;;;;;;11.64;78.24;102375.78;5017801;28;20037;-69
2022/08/07 03:54:00;;;;;;;23.55;13.77;;;;;;;11.62;79.01;102383.19;5006930;28;20025;-70
2022/08/07 03:56:28;;;;;;;26.27;14.35;;;;;;;11.62;78.95;102383.19;5005003;28;20018;-70
2022/08/07 03:58:54;;;;;;;25.23;14.18;;;;;;;11.65;79.11;102387.50;5001743;28;20057;-70
2022/08/07 04:01:20;;;;;;;27.27;15.85;;;;;;;11.60;79.07;102385.16;5003798;28;20103;-71
2022/08/07 04:03:45;;;;;;;24.00;13.45;;;;;;;11.61;79.18;102386.91;5002364;28;20073;-70
2022/08/07 04:06:11;;;;;;;23.17;14.05;;;;;;;11.59;78.95;102394.28;4999404;28;20034;-70
2022/08/07 04:08:40;;;;;;;23.80;13.95;;;;;;;11.60;79.32;102395.16;4999705;28;20018;-70
2022/08/07 04:11:09;;;;;;;24.70;14.25;;;;;;;11.64;79.33;102402.06;5019186;28;20108;-69
2022/08/07 04:13:35;;;;;;;28.13;14.45;;;;;;;11.63;79.35;102401.19;5002269;28;20451;-69
2022/08/07 04:16:01;;;;;;;27.90;14.15;;;;;;;11.67;79.32;102396.34;5007348;28;20109;-69
2022/08/07 04:18:26;;;;;;;23.30;14.10;;;;;;;11.66;78.68;102400.91;5006949;28;20042;-69
2022/08/07 04:20:52;;;;;;;23.25;14.32;;;;;;;11.69;78.71;102408.81;5011287;28;20030;-69
2022/08/07 04:23:19;;;;;;;19.70;13.15;;;;;;;11.73;78.34;102405.84;5000068;28;20065;-69
2022/08/07 04:25:44;;;;;;;20.65;14.50;;;;;;;11.68;78.51;102398.97;5005216;28;20048;-69
2022/08/07 04:28:11;;;;;;;24.67;12.85;;;;;;;11.66;79.30;102409.06;5024565;28;20542;-69
2022/08/07 04:30:37;;;;;;;22.20;14.65;;;;;;;11.75;79.27;102412.03;5015497;28;20024;-69
2022/08/07 04:33:08;;;;;;;25.58;13.68;;;;;;;11.84;78.65;102411.28;4992350;28;20053;-69
2022/08/07 04:35:35;;;;;;;22.77;14.02;;;;;;;11.79;78.79;102410.75;4993314;28;20449;-69
2022/08/07 04:38:06;;;;;;;22.20;12.82;;;;;;;11.86;78.40;102417.41;4995182;28;20055;-69
2022/08/07 04:40:32;;;;;;;21.10;13.38;;;;;;;11.85;78.20;102415.72;5010050;28;20021;-69
2022/08/07 04:42:58;;;;;;;24.65;14.73;;;;;;;11.91;79.36;102420.63;5010466;28;20021;-69
2022/08/07 04:45:28;;;;;;;25.15;13.05;;;;;;;11.91;79.23;102416.06;5018557;28;20085;-69
2022/08/07 04:48:06;;;;;;;22.75;13.60;;;;;;;11.91;80.46;102415.19;5008829;28;20042;-70
2022/08/07 04:50:31;;;;;;;20.88;14.23;;;;;;;11.98;80.78;102421.81;4994643;28;20025;-69
2022/08/07 04:53:09;;;;;;;29.10;15.82;;;;;;;12.06;81.29;102424.78;5012495;28;20384;-69
2022/08/07 04:55:56;;;;;;;28.85;16.05;;;;;;;12.01;81.44;102421.59;5008400;28;20037;-69
2022/08/07 04:58:30;;;;;;;35.03;15.90;;;;;;;12.01;81.82;102421.59;4999767;28;20017;-69
2022/08/07 05:01:37;;;;;;;34.58;16.00;;;;;;;12.10;81.96;102426.22;4997265;28;20026;-69
2022/08/07 05:04:13;;;;;;;25.80;15.63;;;;;;;12.33;81.27;102432.41;4998181;28;20034;-69
2022/08/07 05:06:48;;;;;;;26.88;15.07;;;;;;;12.44;81.11;102428.75;5016653;28;20034;-69
2022/08/07 05:09:23;;;;;;;29.67;15.93;;;;;;;12.52;81.54;102428.97;4992542;28;20026;-69
2022/08/07 05:11:51;;;;;;;31.17;17.08;;;;;;;12.52;82.12;102431.69;5010693;28;20068;-69
2022/08/07 05:14:32;;;;;;;27.77;17.08;;;;;;;12.76;81.16;102425.97;5021712;28;20427;-69
2022/08/07 05:17:01;;;;;;;30.35;17.45;;;;;;;12.75;81.35;102433.25;5001285;28;20041;-69
2022/08/07 05:19:33;;;;;;;25.10;16.05;;;;;;;12.82;81.52;102430.00;4993333;28;20018;-69
2022/08/07 05:22:00;;;;;;;27.35;16.05;;;;;;;12.91;81.31;102431.91;5001119;28;20018;-70
2022/08/07 05:24:28;;;;;;;34.20;17.80;;;;;;;13.09;81.37;102433.00;5005607;28;20023;-70
2022/08/07 05:26:56;;;;;;;28.55;15.20;;;;;;;13.28;79.97;102430.38;5020720;28;20492;-70
2022/08/07 05:29:23;;;;;;;29.25;16.67;;;;;;;13.36;80.58;102431.56;5004092;28;20045;-70
2022/08/07 05:31:50;;;;;;;25.05;16.20;;;;;;;13.49;79.53;102432.16;5002971;28;20037;-70
2022/08/07 05:34:17;;;;;;;25.23;14.93;;;;;;;13.47;79.35;102434.16;4995042;28;20029;-70
2022/08/07 05:36:47;;;;;;;26.55;14.70;;;;;;;13.41;79.94;102426.56;5008671;28;20030;-70
2022/08/07 05:39:16;;;;;;;29.40;16.23;;;;;;;13.48;79.92;102435.88;4998728;28;20072;-70
2022/08/07 05:41:42;;;;;;;24.92;14.50;;;;;;;13.70;79.35;102441.13;5014570;28;20503;-70
2022/08/07 05:44:09;;;;;;;31.00;15.55;;;;;;;13.88;78.70;102443.13;4999014;28;20021;-70
2022/08/07 05:46:36;;;;;;;26.13;14.30;;;;;;;13.94;78.64;102439.84;4995880;28;20065;-70
2022/08/07 05:49:05;;;;;;;24.60;14.20;;;;;;;14.06;78.63;102436.84;4996739;28;20030;-70
2022/08/07 05:51:30;;;;;;;23.63;14.90;;;;;;;14.28;77.78;102430.25;5010223;28;20049;-70
2022/08/07 05:53:56;;;;;;;26.15;15.38;;;;;;;14.33;76.47;102433.38;4991189;28;20035;-70
2022/08/07 05:56:23;;;;;;;38.25;16.42;;;;;;;14.37;78.02;102429.38;5013214;28;20042;-70
2022/08/07 05:58:49;;;;;;;23.48;14.35;;;;;;;14.52;77.09;102437.13;4992850;28;20037;-72
2022/08/07 06:01:16;;;;;;;24.60;14.60;;;;;;;14.41;77.63;102429.97;5010019;28;20022;-70
2022/08/07 06:03:47;;;;;;;25.83;15.85;;;;;;;14.53;77.34;102427.94;4999785;28;20018;-70
2022/08/07 06:06:12;;;;;;;26.20;15.27;;;;;;;14.61;77.57;102425.38;4996427;28;20033;-71
2022/08/07 06:08:41;;;;;;;25.75;14.77;;;;;;;14.78;76.55;102421.88;5015945;28;20087;-70
2022/08/07 06:11:08;;;;;;;25.10;13.70;;;;;;;14.87;76.30;102421.00;4992940;28;20038;-71
2022/08/07 06:13:36;;;;;;;23.52;13.40;;;;;;;14.97;75.83;102425.53;5011889;28;20033;-70
2022/08/07 06:16:02;;;;;;;24.95;12.70;;;;;;;15.12;75.02;102429.50;5004140;28;20473;-71
2022/08/07 06:18:31;;;;;;;21.80;11.98;;;;;;;15.34;74.53;102428.25;5000615;28;20036;-71
2022/08/07 06:20:58;;;;;;;27.92;13.65;;;;;;;15.34;73.68;102429.13;5005362;28;20034;-71
2022/08/07 06:23:23;;;;;;;20.58;11.35;;;;;;;15.30;73.95;102422.22;4990882;28;20029;-71
2022/08/07 06:25:49;;;;;;;22.50;12.02;;;;;;;15.19;73.38;102419.69;5013915;28;20025;-70
2022/08/07 06:28:15;;;;;;;20.90;11.35;;;;;;;15.24;73.29;102422.84;4991519;28;20063;-71
2022/08/07 06:30:41;;;;;;;19.88;12.23;;;;;;;15.25;73.30;102424.53;5006332;28;20018;-70
2022/08/07 06:33:07;;;;;;;23.63;11.10;;;;;;;15.58;72.44;102424.94;5003253;28;20369;-70
2022/08/07 06:35:36;;;;;;;17.30;11.35;;;;;;;15.84;71.59;102420.47;5000540;28;20096;-70
2022/08/07 06:38:04;;;;;;;21.20;12.23;;;;;;;15.94;71.41;102421.28;4997966;28;20033;-70
2022/08/07 06:40:33;;;;;;;22.88;10.18;;;;;;;15.92;69.91;102423.31;4995733;28;20041;-69
2022/08/07 06:43:01;;;;;;;16.30;9.57;;;;;;;15.89;70.44;102423.63;4992204;28;20058;-70
2022/08/07 06:45:28;;;;;;;13.00;9.25;;;;;;;15.93;71.07;102425.03;5012475;28;20025;-70
2022/08/07 06:47:54;;;;;;;13.82;9.35;;;;;;;16.00;69.57;102431.59;5003113;28;20419;-70
2022/08/07 06:50:20;;;;;;;15.18;9.77;;;;;;;15.88;70.04;102432.84;4991264;28;20042;-70
2022/08/07 06:52:51;;;;;;;16.35;7.78;;;;;;;16.05;69.29;102433.00;5008201;28;20034;-70
2022/08/07 06:55:23;;;;;;;13.63;8.25;;;;;;;16.02;69.29;102432.28;5012032;28;20061;-69
2022/08/07 06:57:50;;;;;;;13.93;9.18;;;;;;;16.53;68.69;102441.63;5007711;28;20015;-70
2022/08/07 07:00:17;;;;;;;15.05;8.15;;;;;;;16.54;66.78;102439.75;4997827;28;20036;-71
2022/08/07 07:02:43;;;;;;;14.30;7.07;;;;;;;16.47;66.78;102428.59;4992434;28;20033;-70
2022/08/07 07:05:10;;;;;;;12.48;6.88;;;;;;;16.80;66.83;102428.84;5001206;28;20054;-71
2022/08/07 07:07:35;;;;;;;14.75;6.55;;;;;;;16.77;65.10;102429.19;4997130;28;20037;-71
2022/08/07 07:10:01;;;;;;;13.82;6.95;;;;;;;16.92;65.75;102421.22;5013494;28;20034;-71
2022/08/07 07:12:42;;;;;;;12.93;6.50;;;;;;;16.94;65.39;102414.56;5008481;28;20022;-71
2022/08/07 07:15:20;;;;;;;22.60;7.33;;;;;;;17.02;66.19;102428.31;5026442;28;20125;-71
2022/08/07 07:18:16;;;;;;;10.52;6.72;;;;;;;17.19;65.56;102433.84;5017661;28;20049;-71
2022/08/07 07:20:56;;;;;;;13.32;6.55;;;;;;;16.89;64.79;102444.31;5000292;28;20036;-71
2022/08/07 07:23:23;;;;;;;12.13;6.85;;;;;;;17.07;64.40;102436.00;4991973;28;20026;-71
2022/08/07 07:25:53;;;;;;;12.57;6.10;;;;;;;17.33;63.82;102425.88;5000341;28;20062;-72
2022/08/07 07:28:33;;;;;;;14.05;5.93;;;;;;;17.32;63.47;102432.38;4992449;28;20045;-71
2022/08/07 07:31:04;;;;;;;11.50;5.93;;;;;;;17.23;64.15;102429.78;5009286;28;20172;-71
2022/08/07 07:33:32;;;;;;;18.95;7.82;;;;;;;17.15;63.86;102426.97;5015917;28;20515;-70
2022/08/07 07:35:59;;;;;;;15.00;6.70;;;;;;;17.38;63.28;102432.75;4995241;28;20117;-71
2022/08/07 07:38:25;;;;;;;11.75;5.60;;;;;;;17.42;63.10;102424.03;5000589;28;20185;-70
2022/08/07 07:40:55;;;;;;;13.40;6.60;;;;;;;17.48;62.87;102417.91;5003699;28;20030;-71
2022/08/07 07:43:22;;;;;;;9.98;6.28;;;;;;;17.92;61.40;102436.88;5006887;28;20022;-71
2022/08/07 07:45:49;;;;;;;9.82;5.75;;;;;;;17.84;61.17;102434.13;5003602;28;20045;-71
2022/08/07 07:48:18;;;;;;;12.15;5.72;;;;;;;18.14;60.71;102425.25;4998988;28;20026;-71
2022/08/07 07:50:46;;;;;;;12.07;6.10;;;;;;;18.23;60.45;102428.00;5020071;28;20476;-71
2022/08/07 07:53:14;;;;;;;10.23;5.60;;;;;;;18.09;60.74;102426.81;5000927;28;20017;-70
2022/08/07 07:55:40;;;;;;;11.25;6.25;;;;;;;18.21;59.77;102424.59;5017714;28;20030;-70
2022/08/07 07:58:06;;;;;;;14.90;5.40;;;;;;;18.45;59.37;102416.34;5002066;28;20022;-70
2022/08/07 08:00:33;;;;;;;13.63;5.28;;;;;;;18.68;58.60;102422.00;4993474;28;20109;-70
2022/08/07 08:03:08;;;;;;;13.23;5.25;;;;;;;18.97;58.03;102410.44;5003728;28;20041;-71
2022/08/07 08:05:36;;;;;;;10.82;5.65;;;;;;;19.09;56.53;102413.66;5024710;28;20034;-72
2022/08/07 08:08:03;;;;;;;14.73;5.72;;;;;;;19.31;56.06;102412.06;4997512;28;20048;-72
2022/08/07 08:10:29;;;;;;;9.00;5.97;;;;;;;19.06;56.42;102408.53;5019838;28;20021;-71
2022/08/07 08:12:56;;;;;;;8.35;5.63;;;;;;;18.86;56.70;102408.09;4994432;28;20022;-72
2022/08/07 08:15:23;;;;;;;10.23;5.03;;;;;;;18.69;57.93;102402.63;5005103;28;20054;-72
2022/08/07 08:17:48;;;;;;;13.55;5.90;;;;;;;18.73;55.95;102407.78;4990996;28;20120;-70
2022/08/07 08:20:15;;;;;;;10.77;6.15;;;;;;;19.09;55.93;102403.53;5005411;28;20385;-71
2022/08/07 08:28:19;;;;;;;17.63;5.07;;;;;;;19.35;52.93;102391.41;4991623;28;20078;-71
2022/08/07 08:30:46;;;;;;;8.77;5.32;;;;;;;19.63;52.37;102398.19;4988431;28;20026;-72
2022/08/07 08:33:17;;;;;;;6.80;4.68;;;;;;;19.12;54.25;102381.25;4987793;28;20030;-71
2022/08/07 08:35:47;;;;;;;11.38;4.53;;;;;;;19.84;52.28;102402.19;5004006;28;20120;-72
2022/08/07 08:38:16;;;;;;;13.95;4.65;;;;;;;19.39;50.26;102387.28;5002315;28;20029;-72
2022/08/07 08:40:48;;;;;;;12.02;4.22;;;;;;;19.75;50.14;102393.97;4994246;28;20023;-73
2022/08/07 08:43:20;;;;;;;12.18;4.88;;;;;;;19.47;49.86;102400.97;4998688;28;20022;-72
2022/08/07 08:46:31;;;;;;;10.43;5.55;;;;;;;19.58;49.84;102392.38;5000233;28;20026;-71
2022/08/07 08:49:30;;;;;;;11.20;4.10;;;;;;;19.45;46.79;102386.56;4962231;28;20035;-72
2022/08/07 08:52:06;;;;;;;8.30;4.45;;;;;;;20.12;45.50;102395.09;4950827;28;20031;-71
2022/08/07 08:54:40;;;;;;;7.15;4.35;;;;;;;19.68;43.81;102392.97;4993108;28;20110;-72
2022/08/07 08:57:20;;;;;;;6.72;3.53;;;;;;;19.42;45.06;102381.41;5007942;28;20026;-71
2022/08/07 09:00:05;;;;;;;7.85;4.30;;;;;;;19.62;46.02;102382.72;4999861;28;20033;-73
2022/08/07 09:02:55;;;;;;;4.93;4.15;;;;;;;19.76;46.36;102384.72;5012203;28;20025;-72
2022/08/07 09:05:21;;;;;;;6.47;4.15;;;;;;;20.25;44.63;102388.97;5014583;28;20125;-72
2022/08/07 09:07:52;;;;;;;7.15;4.63;;;;;;;20.07;44.12;102392.03;4998011;28;20121;-72
2022/08/07 09:10:43;;;;;;;5.72;4.40;;;;;;;20.07;45.25;102383.78;5003419;28;20034;-70
2022/08/07 09:13:35;;;;;;;6.30;4.43;;;;;;;20.36;44.40;102384.91;4987426;28;20101;-71
2022/08/07 09:16:07;;;;;;;;;;;;;;;20.46;44.36;102380.03;4982629;28;20034;-73
2022/08/07 09:18:32;;;;;;;8.52;4.75;;;;;;;20.46;44.84;102380.03;4993868;28;19909;-72
2022/08/07 09:21:35;;;;;;;7.00;4.75;;;;;;;20.59;44.25;102380.22;5015844;28;20156;-72
2022/08/07 09:24:30;;;;;;;7.93;4.18;;;;;;;20.63;44.38;102381.59;4996610;28;20022;-72
2022/08/07 09:27:19;;;;;;;9.00;4.15;;;;;;;20.69;43.75;102377.22;5017621;28;20018;-71
2022/08/07 09:29:47;;;;;;;5.18;4.60;;;;;;;21.03;43.23;102363.75;5016806;28;20092;-71
2022/08/07 09:32:42;;;;;;;8.50;4.57;;;;;;;21.42;42.22;102369.97;5010975;28;20044;-72
2022/08/07 09:35:29;;;;;;;7.28;4.65;;;;;;;21.14;43.05;102378.94;5013797;28;20081;-72
2022/08/07 09:38:12;;;;;;;6.72;4.43;;;;;;;21.14;42.94;102367.91;4992999;28;20022;-73
2022/08/07 09:41:00;;;;;;;9.70;4.30;;;;;;;20.74;44.06;102370.13;5015016;28;20030;-71
2022/08/07 09:44:03;;;;;;;9.32;5.07;;;;;;;20.86;44.44;102374.09;5013495;28;20030;-71
2022/08/07 09:46:43;;;;;;;5.90;4.22;;;;;;;21.02;43.37;102369.44;5011802;28;20030;-72
2022/08/07 09:49:21;;;;;;;7.60;4.82;;;;;;;20.88;44.72;102362.91;4994586;28;20026;-71
2022/08/07 09:52:10;;;;;;;8.23;5.22;;;;;;;20.57;45.26;102361.16;5000721;28;20026;-72
2022/08/07 09:54:57;;;;;;;7.95;4.68;;;;;;;20.29;46.34;102358.16;5012902;28;20030;-71
2022/08/07 09:57:48;;;;;;;8.73;5.53;;;;;;;20.45;45.09;102361.81;4992583;28;20040;-73
2022/08/07 10:00:18;;;;;;;8.63;4.63;;;;;;;21.25;43.27;102352.78;4996504;28;20499;-72
2022/08/07 10:02:53;;;;;;;5.82;4.47;;;;;;;20.92;44.41;102350.44;4996259;28;20109;-71
2022/08/07 10:05:25;;;;;;;6.70;4.55;;;;;;;20.54;45.22;102363.47;5012418;28;20049;-71
2022/08/07 10:08:13;;;;;;;9.20;4.90;;;;;;;21.08;44.64;102357.66;4992507;28;20098;-71
2022/08/07 10:10:57;;;;;;;7.32;5.15;;;;;;;21.15;45.03;102347.59;4998662;28;20021;-71
2022/08/07 10:13:25;;;;;;;9.23;5.45;;;;;;;21.54;44.04;102340.88;5011764;28;20388;-72
2022/08/07 10:16:03;;;;;;;10.40;4.57;;;;;;;21.93;43.77;102330.25;4990300;28;20026;-72
2022/08/07 10:18:50;;;;;;;8.90;5.20;;;;;;;22.15;42.97;102330.25;5005787;28;20028;-71
2022/08/07 10:21:43;;;;;;;5.22;4.00;;;;;;;22.06;41.16;102323.16;4996662;28;20026;-71
2022/08/07 10:24:33;;;;;;;15.27;5.20;;;;;;;21.73;42.53;102333.88;4997258;28;20022;-71
2022/08/07 10:27:05;;;;;;;7.63;5.15;;;;;;;22.61;40.59;102332.50;4991452;28;20018;-72
2022/08/07 10:30:11;;;;;;;7.10;4.95;;;;;;;22.32;41.69;102328.91;5000286;28;20034;-72
2022/08/07 10:32:43;;;;;;;10.10;4.55;;;;;;;21.95;42.13;102328.13;4986614;28;20041;-72
2022/08/07 10:35:26;;;;;;;6.20;4.85;;;;;;;22.38;41.04;102316.22;5001666;28;20027;-71
2022/08/07 10:38:13;;;;;;;8.55;4.70;;;;;;;22.05;41.26;102332.47;5005614;28;20022;-72
2022/08/07 10:40:55;;;;;;;6.03;4.70;;;;;;;21.81;42.88;102326.31;5009098;28;20026;-73
2022/08/07 10:43:33;;;;;;;6.63;4.22;;;;;;;22.06;42.48;102317.63;5010514;28;20168;-72
2022/08/07 10:46:14;;;;;;;7.57;3.90;;;;;;;21.85;42.63;102311.09;4997641;28;20125;-72
2022/08/07 10:48:59;;;;;;;7.28;4.60;;;;;;;21.90;41.78;102314.06;5013842;28;20029;-71
2022/08/07 10:51:39;;;;;;;16.08;4.82;;;;;;;22.63;40.16;102302.81;4992382;28;20080;-71
2022/08/07 10:54:15;;;;;;;8.50;4.32;;;;;;;22.79;40.04;102319.00;5009226;28;20021;-71
2022/08/07 10:57:05;;;;;;;7.53;4.10;;;;;;;21.63;41.94;102312.13;4987116;28;20068;-72
2022/08/07 11:00:08;;;;;;;6.32;4.43;;;;;;;22.41;42.02;102302.00;5003283;28;20483;-71
2022/08/07 11:02:58;;;;;;;6.03;4.35;;;;;;;21.81;42.09;102304.25;5011903;28;20439;-72
2022/08/07 11:05:40;;;;;;;7.32;4.25;;;;;;;22.18;42.35;102294.00;4990302;28;20030;-71
2022/08/07 11:08:35;;;;;;;6.97;3.75;;;;;;;21.86;41.32;102285.22;4997391;28;20480;-71
2022/08/07 11:11:24;;;;;;;8.68;3.78;;;;;;;22.26;40.66;102288.31;5009847;28;20033;-71
2022/08/07 11:14:11;;;;;;;12.13;4.05;;;;;;;22.61;39.38;102289.16;5001236;28;20021;-71
2022/08/07 11:17:05;;;;;;;5.70;3.78;;;;;;;21.67;41.80;102289.50;5013757;28;20038;-71
2022/08/07 11:19:57;;;;;;;8.20;3.78;;;;;;;21.40;41.93;102285.59;4992023;28;20058;-71
2022/08/07 11:22:40;;;;;;;6.80;4.25;;;;;;;21.22;43.78;102287.91;4999492;28;20025;-71
2022/08/07 11:25:17;;;;;;;8.95;4.20;;;;;;;22.21;41.07;102288.06;4997156;28;20168;-71
2022/08/07 11:28:12;;;;;;;6.50;3.67;;;;;;;23.59;38.96;102275.09;4995951;28;20033;-71
2022/08/07 11:30:52;;;;;;;3.47;3.10;;;;;;;22.32;38.90;102282.00;4996170;28;20034;-70
2022/08/07 11:33:26;;;;;;;9.07;4.20;;;;;;;21.59;41.16;102283.25;5011149;28;20037;-71
2022/08/07 11:36:17;;;;;;;7.47;3.53;;;;;;;22.57;39.76;102274.09;4997683;28;20026;-71
2022/08/07 11:38:52;;;;;;;6.35;3.40;;;;;;;23.19;39.28;102275.00;4996259;28;20029;-71
2022/08/07 11:41:22;;;;;;;5.97;3.58;;;;;;;23.97;36.74;102267.94;5011381;28;20045;-73